Pagrindinis puslapis
METAR-TAF:

METAR-TAF

Oro uostai :

Comiso, Italija

platuma: 36-59-30N, ilguma: 14-36-25E, Aukštis: 190 m

Dabartinis oras

Ataskaita buvo paskelbta 14 minutes, ne 22:50 UTC
Vėjas 5 kt iš Rytų/Šiaurės Rytų
Temperatūra 25°C
Drėgmė 39%
Slėgis 1015 hPa
Matomumas 10 km arba daugiau

METAR: LICB 182250Z AUTO 06005KT 9999 // NCD 25/10 Q1015

Laikas: 01:04 (23:04 UTC)

Prognozė

Ataskaita buvo paskelbta 6 valandos ir 4 minutes, ne 17:00 UTC
Prognozė galioja nuo 18 metu 18 UTC su 19 metu 18 UTC
Vėjas 10 kt iš Vakarų/Pietvakarių
Matomumas 10 km arba daugiau
nėra debesų žemiau 1500 m ir nėra kamuolinių lietaus debesų
Tapsmas
nuo 18 metu 18 UTC su 18 metu 20 UTC
Vėjas 5 kt nuo kintamojo kryptimis
Tapsmas
nuo 19 metu 09 UTC su 19 metu 11 UTC
Vėjas 10 kt iš Vakarų/Pietvakarių

TAF: LICB 181700Z 1818/1918 25010KT CAVOK BECMG 1818/1820 VRB05KT BECMG 1909/1911 25010KT

Orai ataskaitas ir orų prognozės (METAR, TAF).

turimą stotys yra geltonos ir raudonos taškus žemėlapyje.

Perkelti pele per norėdami pamatyti stoties vardą.

Tada spustelėkite, norėdami matyti oro stebėjimo ir prognozės.

Norėdami pakeisti žemėlapį: spustelėkite ant žalios mygtukų su juodo kryžiaus žemyn,; žalią mygtuką su brūkšneliu, jei norite nutolinti; arba žalių rodyklių gretimoms žemėlapius.


METAR-TAF: